createdAt,value
2023-12-27T00:00:20.982Z,84.16
2023-12-27T00:03:23.158Z,82.66
2023-12-27T00:06:25.281Z,82.67
2023-12-27T00:09:27.464Z,83.51
2023-12-27T00:12:29.506Z,84.19
2023-12-27T00:15:31.642Z,82.70
2023-12-27T00:18:33.845Z,83.51
2023-12-27T00:21:36.181Z,83.24
2023-12-27T00:24:38.330Z,82.77
2023-12-27T00:27:40.529Z,83.17
2023-12-27T00:30:42.778Z,81.90
2023-12-27T00:33:45.148Z,82.57
2023-12-27T00:36:47.292Z,82.02
2023-12-27T00:39:49.298Z,83.71
2023-12-27T00:42:52.471Z,82.33
2023-12-27T00:45:54.502Z,83.15
2023-12-27T00:48:56.686Z,83.17
2023-12-27T00:51:58.794Z,84.75
2023-12-27T00:55:01.369Z,83.29
2023-12-27T00:58:03.456Z,84.24
2023-12-27T01:01:05.564Z,84.91
2023-12-27T01:04:07.671Z,83.48
2023-12-27T01:07:09.748Z,82.76
2023-12-27T01:10:11.742Z,83.53
2023-12-27T01:13:14.874Z,83.37
2023-12-27T01:16:16.940Z,82.64
2023-12-27T01:19:19.038Z,83.70
2023-12-27T01:22:21.412Z,85.93
2023-12-27T01:25:23.401Z,86.90
2023-12-27T01:28:25.396Z,85.58
2023-12-27T01:31:27.511Z,85.98
2023-12-27T01:34:29.827Z,85.45
2023-12-27T01:37:33.794Z,85.18
2023-12-27T01:40:36.256Z,86.66
2023-12-27T01:43:39.119Z,85.70
2023-12-27T01:46:41.346Z,85.82
2023-12-27T01:49:43.497Z,86.71
2023-12-27T01:52:45.749Z,85.51
2023-12-27T01:55:48.851Z,85.68
2023-12-27T01:58:51.232Z,86.98
2023-12-27T02:01:53.822Z,87.50
2023-12-27T02:04:55.856Z,87.50
2023-12-27T02:07:59.196Z,85.88
2023-12-27T02:11:01.976Z,86.69
2023-12-27T02:14:07.700Z,87.29
2023-12-27T02:17:09.913Z,86.61
2023-12-27T02:20:12.302Z,87.67
2023-12-27T02:23:19.065Z,86.98
2023-12-27T02:26:21.534Z,86.82
2023-12-27T02:29:23.913Z,84.93
2023-12-27T02:32:27.809Z,86.20
2023-12-27T02:35:29.994Z,86.29
2023-12-27T02:38:32.060Z,85.46
2023-12-27T02:41:34.280Z,83.02
2023-12-27T02:44:36.398Z,83.51
2023-12-27T02:47:38.440Z,84.03
2023-12-27T02:50:40.563Z,84.95
2023-12-27T02:53:42.674Z,85.08
2023-12-27T02:56:44.707Z,85.73
2023-12-27T02:59:46.810Z,85.01
2023-12-27T03:02:48.857Z,84.19
2023-12-27T03:05:51.041Z,84.38
2023-12-27T03:08:55.132Z,84.46
2023-12-27T03:11:57.941Z,83.24
2023-12-27T03:14:59.998Z,84.07
2023-12-27T03:18:02.562Z,80.69
2023-12-27T03:21:05.033Z,81.83
2023-12-27T03:24:07.188Z,81.74
2023-12-27T03:27:09.408Z,81.60
2023-12-27T03:30:12.268Z,82.19
2023-12-27T03:33:14.522Z,81.30
2023-12-27T03:36:16.640Z,81.80
2023-12-27T03:39:18.871Z,80.58
2023-12-27T03:42:21.098Z,77.20
2023-12-27T03:45:23.221Z,77.62
2023-12-27T03:48:25.703Z,78.54
2023-12-27T03:51:27.988Z,77.55
2023-12-27T03:54:30.060Z,78.73
2023-12-27T03:57:32.394Z,76.37
2023-12-27T04:00:35.659Z,75.22
2023-12-27T04:03:37.928Z,74.70
2023-12-27T04:06:40.126Z,73.93
2023-12-27T04:09:42.747Z,74.64
2023-12-27T04:12:45.024Z,75.87
2023-12-27T04:15:47.408Z,74.89
2023-12-27T04:18:49.934Z,74.50
2023-12-27T04:21:52.745Z,74.06
2023-12-27T04:24:56.389Z,73.98
2023-12-27T04:27:59.877Z,72.70
2023-12-27T04:31:02.223Z,72.49
2023-12-27T04:34:04.591Z,71.51
2023-12-27T04:37:11.088Z,71.20
2023-12-27T04:40:13.184Z,71.21
2023-12-27T04:43:15.385Z,71.54
2023-12-27T04:46:17.929Z,71.99
2023-12-27T04:49:20.067Z,71.55
2023-12-27T04:52:22.723Z,72.53
2023-12-27T04:55:24.971Z,73.02
2023-12-27T04:58:26.994Z,73.07
2023-12-27T05:01:29.249Z,75.45
2023-12-27T05:04:31.258Z,75.81
2023-12-27T05:07:34.165Z,76.54
2023-12-27T05:10:36.155Z,77.61
2023-12-27T05:13:38.172Z,76.54
2023-12-27T05:16:40.205Z,77.24
2023-12-27T05:19:42.326Z,78.67
2023-12-27T05:22:45.773Z,79.61
2023-12-27T05:25:47.802Z,79.89
2023-12-27T05:28:49.853Z,79.92
2023-12-27T05:31:51.948Z,79.54
2023-12-27T05:34:54.428Z,80.60
2023-12-27T05:37:56.622Z,80.57
2023-12-27T05:40:58.832Z,79.27
2023-12-27T05:44:02.544Z,78.99
2023-12-27T05:47:04.691Z,79.05
2023-12-27T05:50:07.807Z,79.72
2023-12-27T05:53:13.595Z,79.20
2023-12-27T05:56:16.869Z,78.75
2023-12-27T05:59:18.966Z,79.50
2023-12-27T06:02:21.062Z,79.67
2023-12-27T06:05:24.192Z,79.79
2023-12-27T06:08:26.239Z,79.74
2023-12-27T06:11:28.314Z,79.11
2023-12-27T06:14:30.367Z,80.97
2023-12-27T06:17:32.522Z,80.10
2023-12-27T06:20:34.644Z,80.53
2023-12-27T06:23:36.882Z,80.92
2023-12-27T06:26:38.910Z,82.75
2023-12-27T06:29:41.047Z,83.08
2023-12-27T06:32:43.143Z,83.82
2023-12-27T06:35:45.354Z,82.70
2023-12-27T06:38:47.600Z,83.41
2023-12-27T06:41:49.786Z,80.65
2023-12-27T06:44:51.888Z,80.74
2023-12-27T06:47:54.068Z,81.38
2023-12-27T06:50:56.123Z,82.04
2023-12-27T06:53:58.107Z,83.27
2023-12-27T06:57:00.980Z,83.90
2023-12-27T07:00:04.189Z,84.95
2023-12-27T07:03:06.760Z,85.35
2023-12-27T07:06:09.353Z,83.50
2023-12-27T07:09:11.694Z,83.75
2023-12-27T07:12:14.092Z,84.72
2023-12-27T07:15:16.560Z,84.48
2023-12-27T07:18:18.736Z,82.58
2023-12-27T07:21:22.400Z,82.82
2023-12-27T07:24:24.488Z,83.38
2023-12-27T07:27:27.005Z,83.78
2023-12-27T07:30:29.282Z,83.92
2023-12-27T07:33:31.960Z,84.65
2023-12-27T07:36:34.259Z,83.18
2023-12-27T07:39:36.662Z,83.71
2023-12-27T07:42:39.008Z,81.63
2023-12-27T07:45:41.343Z,82.29
2023-12-27T07:48:43.590Z,82.87
2023-12-27T07:51:46.288Z,83.14
2023-12-27T07:54:48.282Z,85.71
2023-12-27T07:57:51.343Z,85.69
2023-12-27T08:00:54.589Z,85.79
2023-12-27T08:03:56.810Z,86.29
2023-12-27T08:06:58.993Z,86.85
2023-12-27T08:10:01.602Z,87.05
2023-12-27T08:13:05.105Z,86.67
2023-12-27T08:16:09.772Z,83.20
2023-12-27T08:19:11.923Z,83.81
2023-12-27T08:22:13.979Z,85.05
2023-12-27T08:25:17.080Z,84.31
2023-12-27T08:28:19.192Z,83.67
2023-12-27T08:31:21.402Z,83.87
2023-12-27T08:34:23.753Z,82.81
2023-12-27T08:37:27.223Z,83.08
2023-12-27T08:40:29.356Z,82.58
2023-12-27T08:43:31.342Z,82.49
2023-12-27T08:46:34.173Z,81.55
2023-12-27T08:49:36.472Z,80.10
2023-12-27T08:52:40.021Z,78.77
2023-12-27T08:55:42.011Z,78.68
2023-12-27T08:58:44.103Z,77.39
2023-12-27T09:01:46.169Z,76.41
2023-12-27T09:04:48.254Z,77.65
2023-12-27T09:07:50.322Z,74.71
2023-12-27T09:10:52.392Z,75.22
2023-12-27T09:13:54.415Z,75.00
2023-12-27T09:16:56.395Z,73.46
2023-12-27T09:19:58.453Z,73.14
2023-12-27T09:23:01.965Z,73.11
2023-12-27T09:26:04.116Z,71.84
2023-12-27T09:29:06.252Z,72.47
2023-12-27T09:32:08.384Z,72.64
2023-12-27T09:35:10.694Z,73.06
2023-12-27T09:38:12.793Z,73.50
2023-12-27T09:41:15.984Z,74.14
2023-12-27T09:44:21.711Z,73.06
2023-12-27T09:47:25.112Z,71.48
2023-12-27T09:50:27.248Z,70.90
2023-12-27T09:53:29.391Z,70.75
2023-12-27T09:56:32.773Z,69.68
2023-12-27T09:59:40.304Z,69.16
2023-12-27T10:02:43.530Z,70.09
2023-12-27T10:05:56.046Z,66.50
2023-12-27T10:08:59.018Z,67.18
2023-12-27T10:12:02.094Z,66.80
2023-12-27T10:15:05.979Z,66.02
2023-12-27T10:18:09.477Z,65.34
2023-12-27T10:21:13.267Z,64.53
2023-12-27T10:24:16.041Z,64.40
2023-12-27T10:27:18.632Z,64.88
2023-12-27T10:30:21.022Z,64.96
2023-12-27T10:33:28.649Z,64.48
2023-12-27T10:36:34.993Z,63.99
2023-12-27T10:39:43.702Z,63.82
2023-12-27T10:42:47.946Z,64.82
2023-12-27T10:45:49.983Z,64.26
2023-12-27T10:48:56.497Z,63.86
2023-12-27T10:52:00.826Z,63.76
2023-12-27T10:55:04.949Z,63.90
2023-12-27T10:58:12.136Z,63.17
2023-12-27T11:01:15.264Z,62.60
2023-12-27T11:04:19.867Z,62.86
2023-12-27T11:07:26.394Z,62.23
2023-12-27T11:10:31.509Z,61.92
2023-12-27T11:13:35.229Z,61.55
2023-12-27T11:16:41.026Z,62.81
2023-12-27T11:19:44.299Z,65.37
2023-12-27T11:22:46.566Z,66.39
2023-12-27T11:25:48.700Z,68.31
2023-12-27T11:28:51.317Z,68.81
2023-12-27T11:31:54.677Z,68.43
2023-12-27T11:34:57.285Z,69.96
2023-12-27T11:38:21.169Z,69.57
2023-12-27T11:41:23.338Z,70.84
2023-12-27T11:44:36.258Z,71.67
2023-12-27T11:47:39.536Z,69.51
2023-12-27T11:50:43.173Z,69.68
2023-12-27T11:53:47.444Z,70.42
2023-12-27T11:56:49.545Z,70.67
2023-12-27T11:59:57.052Z,71.09
2023-12-27T12:03:01.605Z,70.74
2023-12-27T12:06:35.951Z,70.91
2023-12-27T12:09:40.449Z,71.07
2023-12-27T12:12:43.547Z,71.39
2023-12-27T12:15:45.685Z,71.85
2023-12-27T12:18:49.035Z,71.72
2023-12-27T12:21:53.838Z,71.54
2023-12-27T12:25:07.144Z,71.38
2023-12-27T12:28:10.271Z,69.58
2023-12-27T12:31:13.169Z,71.40
2023-12-27T12:34:15.310Z,71.76
2023-12-27T12:37:18.709Z,69.81
2023-12-27T12:40:22.075Z,70.92
2023-12-27T12:43:24.172Z,71.62
2023-12-27T12:46:26.562Z,72.02
2023-12-27T12:49:30.837Z,72.21
2023-12-27T12:52:37.239Z,71.76
2023-12-27T12:55:39.532Z,71.45
2023-12-27T12:58:43.318Z,70.82
2023-12-27T13:01:45.764Z,71.07
2023-12-27T13:04:59.474Z,71.51
2023-12-27T13:08:07.815Z,72.46
2023-12-27T13:11:12.386Z,70.75
2023-12-27T13:14:15.702Z,71.41
2023-12-27T18:20:18.299Z,100.00
2023-12-27T18:23:20.449Z,100.00
2023-12-27T18:26:31.815Z,100.00
2023-12-27T18:29:41.213Z,100.00
2023-12-27T18:51:16.423Z,100.00
2023-12-27T18:54:28.550Z,100.00
2023-12-27T18:57:31.067Z,100.00
2023-12-27T19:00:33.510Z,100.00
2023-12-27T19:03:39.349Z,100.00
2023-12-27T19:06:41.980Z,100.00
2023-12-27T19:09:44.585Z,100.00
2023-12-27T19:12:47.319Z,100.00
2023-12-27T19:15:50.216Z,100.00
2023-12-27T19:18:53.090Z,100.00
2023-12-27T19:21:57.856Z,100.00
2023-12-27T19:25:00.591Z,100.00
2023-12-27T19:28:04.157Z,100.00
2023-12-27T19:31:07.504Z,100.00
2023-12-27T19:34:10.971Z,100.00
2023-12-27T19:37:13.688Z,100.00
2023-12-27T19:40:16.965Z,100.00
2023-12-27T19:43:19.637Z,100.00
2023-12-27T19:46:22.892Z,100.00
2023-12-27T19:49:26.167Z,100.00
2023-12-27T19:52:28.966Z,100.00
2023-12-27T19:55:31.810Z,100.00
2023-12-27T19:58:35.006Z,100.00
2023-12-27T20:01:38.207Z,100.00
2023-12-27T20:04:41.293Z,100.00
2023-12-27T20:07:44.502Z,100.00
2023-12-27T20:10:47.674Z,100.00
2023-12-27T20:13:53.431Z,100.00
2023-12-27T20:16:56.834Z,100.00
2023-12-27T20:20:00.826Z,100.00
2023-12-27T20:23:04.169Z,100.00
2023-12-27T20:26:09.073Z,100.00
2023-12-27T20:29:12.260Z,100.00
2023-12-27T20:32:18.792Z,100.00
2023-12-27T20:35:23.393Z,100.00
2023-12-27T20:38:28.090Z,100.00
2023-12-27T20:41:34.383Z,100.00
2023-12-27T20:44:37.596Z,100.00
2023-12-27T20:47:41.284Z,100.00
2023-12-27T20:50:44.848Z,100.00
2023-12-27T20:53:48.244Z,100.00
2023-12-27T20:56:51.767Z,100.00
2023-12-27T20:59:55.535Z,100.00
2023-12-27T21:02:59.001Z,100.00
2023-12-27T21:06:01.318Z,100.00
2023-12-27T21:09:04.375Z,100.00
2023-12-27T21:12:16.263Z,100.00
2023-12-27T21:15:18.605Z,100.00
2023-12-27T21:18:20.923Z,100.00
2023-12-27T21:21:23.209Z,100.00
2023-12-27T21:24:25.485Z,100.00
2023-12-27T21:27:28.240Z,100.00
2023-12-27T21:30:30.592Z,100.00
2023-12-27T21:33:47.969Z,100.00
2023-12-27T21:41:48.116Z,100.00
2023-12-27T21:44:58.170Z,100.00
2023-12-27T21:48:01.042Z,100.00
2023-12-27T21:51:03.716Z,100.00
2023-12-27T21:54:06.481Z,100.00
2023-12-27T21:57:08.867Z,100.00
2023-12-27T22:00:11.636Z,100.00
2023-12-27T22:03:14.303Z,100.00
2023-12-27T22:06:17.772Z,100.00
2023-12-27T22:09:20.406Z,100.00
2023-12-27T22:12:22.706Z,100.00
2023-12-27T22:15:25.057Z,100.00
2023-12-27T22:18:27.988Z,100.00
2023-12-27T22:21:31.439Z,100.00
2023-12-27T22:27:54.716Z,100.00
2023-12-27T22:39:09.474Z,100.00
2023-12-27T22:42:19.245Z,100.00
2023-12-27T22:57:00.367Z,100.00
2023-12-27T23:00:42.000Z,100.00
2023-12-27T23:03:46.751Z,100.00
2023-12-27T23:06:50.431Z,100.00
2023-12-27T23:09:53.158Z,100.00
2023-12-27T23:12:55.721Z,100.00
2023-12-27T23:15:59.776Z,100.00
2023-12-27T23:19:02.532Z,100.00
2023-12-27T23:22:05.588Z,100.00
2023-12-27T23:25:09.326Z,100.00
2023-12-27T23:28:11.936Z,100.00
2023-12-27T23:31:14.880Z,100.00
2023-12-27T23:34:17.373Z,100.00
2023-12-27T23:37:19.833Z,100.00
2023-12-27T23:40:22.095Z,100.00
2023-12-27T23:43:25.327Z,100.00
2023-12-27T23:46:27.398Z,100.00
2023-12-27T23:49:29.816Z,100.00
2023-12-27T23:52:32.156Z,100.00
2023-12-27T23:55:35.285Z,100.00
2023-12-27T23:58:38.562Z,100.00
